Time;durP1;ratioP1;P1;durP2;ratioP2;P2;SDS_P1;SDS_P2;PMS_P1;PMS_P2;Temp;Humidity;BMP_temperature;BMP_pressure;BME280_temperature;BME280_humidity;BME280_pressure;Samples;Min_cycle;Max_cycle;Signal;HPM_P1;HPM_P2
2022/08/08 00:00:32;;;;;;;9.57;5.85;;;15.10;99.90;;;;;;5075769;28;20425;-77
2022/08/08 00:03:51;;;;;;;9.48;5.65;;;14.90;99.90;;;;;;5075443;28;20940;-77
2022/08/08 00:06:29;;;;;;;7.95;5.32;;;;;;;;;;5010624;28;20923;-77
2022/08/08 00:09:42;;;;;;;7.75;5.20;;;14.80;99.90;;;;;;5068634;28;20471;-77
2022/08/08 00:12:12;;;;;;;7.80;5.63;;;14.70;99.90;;;;;;5054403;28;20539;-77
2022/08/08 00:15:10;;;;;;;8.00;5.60;;;14.70;99.90;;;;;;5059573;28;20418;-77
2022/08/08 00:17:48;;;;;;;8.40;5.75;;;;;;;;;;5090726;28;20417;-79
2022/08/08 00:20:16;;;;;;;6.68;5.53;;;;;;;;;;5106064;28;20478;-78
2022/08/08 00:22:49;;;;;;;8.13;5.80;;;14.60;99.90;;;;;;5075297;28;20401;-78
2022/08/08 00:25:39;;;;;;;8.52;5.93;;;14.80;99.90;;;;;;5077727;28;20481;-78
2022/08/08 00:28:09;;;;;;;8.98;6.00;;;14.50;99.90;;;;;;5073065;28;20479;-77
2022/08/08 00:30:37;;;;;;;8.95;6.50;;;;;;;;;;5072926;28;20441;-77
2022/08/08 00:33:05;;;;;;;11.07;6.97;;;;;;;;;;5090987;28;20401;-77
2022/08/08 00:35:56;;;;;;;10.40;6.28;;;14.30;99.90;;;;;;5092823;28;20420;-77
2022/08/08 00:38:27;;;;;;;7.97;5.50;;;;;;;;;;5088368;28;20483;-78
2022/08/08 00:41:18;;;;;;;7.90;5.72;;;14.40;99.90;;;;;;5070382;28;20935;-78
2022/08/08 00:43:49;;;;;;;9.68;5.80;;;14.40;99.90;;;;;;5091055;28;20456;-78
2022/08/08 00:46:28;;;;;;;9.73;6.07;;;;;;;;;;5076207;28;20424;-77
2022/08/08 00:49:01;;;;;;;8.50;6.10;;;;;;;;;;5070403;28;20450;-77
2022/08/08 00:51:46;;;;;;;8.73;5.35;;;;;;;;;;5089049;28;20487;-77
2022/08/08 00:54:18;;;;;;;9.23;6.03;;;;;;;;;;5091395;28;20410;-77
2022/08/08 00:57:00;;;;;;;8.88;5.97;;;;;;;;;;5090995;28;20456;-77
2022/08/08 01:00:00;;;;;;;9.40;6.00;;;14.40;99.90;;;;;;5086468;28;20418;-78
2022/08/08 01:02:26;;;;;;;8.85;5.70;;;;;;;;;;5069911;28;20429;-77
2022/08/08 01:05:17;;;;;;;9.10;6.37;;;14.60;99.90;;;;;;5090361;28;20448;-78
2022/08/08 01:08:20;;;;;;;9.23;5.78;;;14.10;99.90;;;;;;5107011;28;20402;-78
2022/08/08 01:11:04;;;;;;;7.53;5.75;;;;;;;;;;5054297;28;20437;-78
2022/08/08 01:13:55;;;;;;;10.55;6.05;;;14.30;99.90;;;;;;5071452;28;20755;-77
2022/08/08 01:16:32;;;;;;;11.57;6.30;;;14.40;99.90;;;;;;5089416;28;20421;-78
2022/08/08 01:19:35;;;;;;;9.35;5.78;;;14.20;99.90;;;;;;5106997;28;20501;-77
2022/08/08 01:22:01;;;;;;;7.78;5.70;;;;;;;;;;5089900;28;20940;-76
2022/08/08 01:24:49;;;;;;;9.82;6.10;;;14.20;99.90;;;;;;5071388;28;20764;-76
2022/08/08 01:27:34;;;;;;;8.98;6.90;;;;;;;;;;5063395;28;20503;-77
2022/08/08 01:30:07;;;;;;;8.77;6.30;;;;;;;;;;5072852;28;20474;-77
2022/08/08 01:32:51;;;;;;;11.37;7.30;;;;;;;;;;5087300;28;20425;-76
2022/08/08 01:35:30;;;;;;;9.80;7.07;;;14.30;99.90;;;;;;5089854;28;20421;-76
2022/08/08 01:38:15;;;;;;;10.48;7.78;;;;;;;;;;5072949;28;20406;-77
2022/08/08 01:40:56;;;;;;;11.23;7.00;;;;;;;;;;5060180;28;20881;-76
2022/08/08 01:43:31;;;;;;;7.95;6.90;;;14.20;99.90;;;;;;5086669;28;20426;-77
2022/08/08 01:46:12;;;;;;;7.38;6.00;;;14.40;99.90;;;;;;5057243;28;20421;-77
2022/08/08 01:48:41;;;;;;;9.73;7.30;;;;;;;;;;5107418;28;20890;-77
2022/08/08 01:51:28;;;;;;;8.88;7.00;;;;;;;;;;5073663;28;20430;-77
2022/08/08 01:54:00;;;;;;;9.45;7.32;;;14.40;99.90;;;;;;5070600;28;20418;-77
2022/08/08 01:56:34;;;;;;;9.20;6.65;;;;;;;;;;5107397;28;20997;-77
2022/08/08 01:59:33;;;;;;;9.52;7.55;;;14.10;99.90;;;;;;5069722;28;20433;-78
2022/08/08 02:01:59;;;;;;;11.02;8.10;;;;;;;;;;5056475;28;20440;-77
2022/08/08 02:04:53;;;;;;;10.63;8.20;;;14.20;99.90;;;;;;5086272;28;20425;-77
2022/08/08 02:07:25;;;;;;;11.63;8.05;;;;;;;;;;5073500;28;20397;-78
2022/08/08 02:10:23;;;;;;;10.10;7.30;;;13.70;99.90;;;;;;5090029;28;20451;-78
2022/08/08 02:12:52;;;;;;;9.52;7.00;;;;;;;;;;5102529;28;20416;-78
2022/08/08 02:15:26;;;;;;;9.05;7.13;;;14.00;99.90;;;;;;5076538;28;20469;-78
2022/08/08 02:17:56;;;;;;;9.93;7.43;;;;;;;;;;5095044;28;21173;-78
2022/08/08 02:20:21;;;;;;;9.38;6.95;;;13.70;99.90;;;;;;5092957;28;20405;-78
2022/08/08 02:23:10;;;;;;;8.55;6.70;;;13.70;99.90;;;;;;5075863;28;20414;-78
2022/08/08 02:25:55;;;;;;;9.52;6.95;;;;;;;;;;5103341;28;20491;-77
2022/08/08 02:28:21;;;;;;;9.85;7.22;;;;;;;;;;5057736;28;20564;-78
2022/08/08 02:31:07;;;;;;;11.68;7.35;;;13.70;99.90;;;;;;5093411;28;20416;-78
2022/08/08 02:33:45;;;;;;;10.43;7.00;;;;;;;;;;5094099;28;20410;-78
2022/08/08 02:36:37;;;;;;;10.82;6.93;;;;;;;;;;5092591;28;20426;-78
2022/08/08 02:39:22;;;;;;;9.55;6.60;;;;;;;;;;5074876;28;20517;-78
2022/08/08 02:41:51;;;;;;;8.20;6.10;;;;;;;;;;5069412;28;20418;-77
2022/08/08 02:44:36;;;;;;;7.80;5.70;;;;;;;;;;5077088;28;20404;-77
2022/08/08 02:47:02;;;;;;;7.28;5.82;;;;;;;;;;5075677;28;20433;-77
2022/08/08 02:49:56;;;;;;;8.30;5.47;;;13.60;99.90;;;;;;5089863;28;20502;-78
2022/08/08 02:53:02;;;;;;;6.75;5.25;;;13.30;99.90;;;;;;5107943;28;20418;-77
2022/08/08 02:56:16;;;;;;;8.18;5.40;;;13.00;99.90;;;;;;5056443;28;20434;-77
2022/08/08 02:59:03;;;;;;;9.00;5.20;;;13.60;99.90;;;;;;5052702;28;20427;-77
2022/08/08 03:01:36;;;;;;;8.18;5.38;;;;;;;;;;5091157;28;20418;-77
2022/08/08 03:04:14;;;;;;;8.45;6.15;;;;;;;;;;5090827;28;20418;-77
2022/08/08 03:07:03;;;;;;;9.13;6.28;;;;;;;;;;5057212;28;20903;-77
2022/08/08 03:09:48;;;;;;;10.13;6.83;;;;;;;;;;5073853;28;20453;-77
2022/08/08 03:12:28;;;;;;;11.17;7.60;;;;;;;;;;5077231;28;20491;-78
2022/08/08 03:15:24;;;;;;;13.23;8.73;;;13.40;99.90;;;;;;5074719;28;20432;-78
2022/08/08 03:18:13;;;;;;;12.32;7.63;;;12.90;99.90;;;;;;5074662;28;20421;-78
2022/08/08 03:20:46;;;;;;;9.60;6.90;;;;;;;;;;5057654;28;20461;-78
2022/08/08 03:23:13;;;;;;;10.05;7.20;;;;;;;;;;5059544;28;20404;-78
2022/08/08 03:25:39;;;;;;;10.07;8.25;;;;;;;;;;5110221;28;20785;-78
2022/08/08 03:28:12;;;;;;;12.02;7.85;;;;;;;;;;5073826;28;20461;-78
2022/08/08 03:30:38;;;;;;;11.43;8.82;;;;;;;;;;5092896;28;20742;-78
2022/08/08 03:33:19;;;;;;;9.90;7.55;;;;;;;;;;5076037;28;20825;-77
2022/08/08 03:35:49;;;;;;;10.32;8.13;;;13.10;99.90;;;;;;5079079;28;20417;-77
2022/08/08 03:38:19;;;;;;;9.52;8.00;;;13.40;99.90;;;;;;5108990;28;20414;-78
2022/08/08 03:40:53;;;;;;;9.98;7.65;;;13.40;99.90;;;;;;5073756;28;20420;-77
2022/08/08 03:43:20;;;;;;;11.95;9.00;;;;;;;;;;5075994;28;20472;-78
2022/08/08 03:45:46;;;;;;;12.88;9.00;;;;;;;;;;5092522;28;20420;-77
2022/08/08 03:48:12;;;;;;;12.07;8.75;;;;;;;;;;5074281;28;20422;-77
2022/08/08 03:50:45;;;;;;;13.50;9.05;;;;;;;;;;5073597;28;20547;-77
2022/08/08 03:53:14;;;;;;;12.25;8.80;;;13.30;99.90;;;;;;5076045;28;20402;-77
2022/08/08 03:55:43;;;;;;;10.32;7.78;;;;;;;;;;5071316;28;20511;-77
2022/08/08 03:58:09;;;;;;;12.60;8.23;;;;;;;;;;5104425;28;20430;-78
2022/08/08 04:00:36;;;;;;;11.95;7.30;;;;;;;;;;5067988;28;20416;-77
2022/08/08 04:03:06;;;;;;;10.85;6.90;;;13.60;99.90;;;;;;5055513;28;20911;-77
2022/08/08 04:05:35;;;;;;;9.70;7.13;;;13.80;99.90;;;;;;5072139;28;20486;-77
2022/08/08 04:08:02;;;;;;;7.93;6.32;;;;;;;;;;5072079;28;20435;-77
2022/08/08 04:10:29;;;;;;;9.75;6.88;;;13.40;99.90;;;;;;5072297;28;20463;-77
2022/08/08 04:12:55;;;;;;;9.23;6.40;;;;;;;;;;5087113;28;20469;-77
2022/08/08 04:15:21;;;;;;;11.38;7.68;;;;;;;;;;5070085;28;20431;-78
2022/08/08 04:17:47;;;;;;;9.23;6.43;;;;;;;;;;5085780;28;20450;-78
2022/08/08 04:20:14;;;;;;;9.38;6.95;;;;;;;;;;5071512;28;20400;-78
2022/08/08 04:22:40;;;;;;;10.63;7.18;;;;;;;;;;5101494;28;20476;-78
2022/08/08 04:25:07;;;;;;;11.32;7.00;;;13.80;99.90;;;;;;5055229;28;20418;-78
2022/08/08 04:27:34;;;;;;;11.20;7.28;;;;;;;;;;5073451;28;20427;-78
2022/08/08 04:30:01;;;;;;;12.25;7.63;;;13.50;99.90;;;;;;5068766;28;20463;-78
2022/08/08 04:32:27;;;;;;;9.43;7.38;;;;;;;;;;5086666;28;20426;-78
2022/08/08 04:34:53;;;;;;;11.73;7.47;;;;;;;;;;5050786;28;20436;-78
2022/08/08 04:37:19;;;;;;;10.97;6.77;;;;;;;;;;5051596;28;20401;-78
2022/08/08 04:39:45;;;;;;;11.05;7.00;;;14.10;99.90;;;;;;5067980;28;20480;-77
2022/08/08 04:42:11;;;;;;;9.30;6.20;;;;;;;;;;5087227;28;20419;-78
2022/08/08 04:44:37;;;;;;;10.35;6.75;;;;;;;;;;5068014;28;21194;-77
2022/08/08 04:47:03;;;;;;;9.77;7.10;;;;;;;;;;5071650;28;20404;-77
2022/08/08 04:49:30;;;;;;;10.30;6.70;;;;;;;;;;5085457;28;20923;-77
2022/08/08 04:51:56;;;;;;;11.13;6.82;;;;;;;;;;5071322;28;20457;-77
2022/08/08 04:54:22;;;;;;;9.53;7.40;;;;;;;;;;5053785;28;20439;-77
2022/08/08 04:56:48;;;;;;;13.02;6.88;;;;;;;;;;5053790;28;20930;-77
2022/08/08 04:59:14;;;;;;;9.77;7.07;;;14.40;99.90;;;;;;5087668;28;20915;-77
2022/08/08 05:01:40;;;;;;;9.10;7.20;;;;;;;;;;5063852;28;20427;-78
2022/08/08 05:04:06;;;;;;;14.20;9.50;;;;;;;;;;5070314;28;21000;-77
2022/08/08 05:06:32;;;;;;;18.00;12.60;;;;;;;;;;5086668;28;20548;-77
2022/08/08 05:08:58;;;;;;;17.60;12.48;;;14.40;99.90;;;;;;5070181;28;20778;-78
2022/08/08 05:11:25;;;;;;;17.42;11.80;;;;;;;;;;5085448;28;20412;-79
2022/08/08 05:13:51;;;;;;;20.47;10.73;;;;;;;;;;5051526;28;20431;-79
2022/08/08 05:16:17;;;;;;;14.80;8.05;;;;;;;;;;5065674;28;20484;-79
2022/08/08 05:18:43;;;;;;;10.65;7.70;;;;;;;;;;5080639;28;20435;-79
2022/08/08 05:21:09;;;;;;;12.88;6.82;;;;;;;;;;5085447;28;20515;-78
2022/08/08 05:23:35;;;;;;;11.73;6.90;;;;;;;;;;5053191;28;20395;-78
2022/08/08 05:26:01;;;;;;;10.88;7.15;;;;;;;;;;5075801;28;20864;-77
2022/08/08 05:28:28;;;;;;;11.02;7.25;;;;;;;;;;5066077;28;20451;-79
2022/08/08 05:30:54;;;;;;;13.15;7.55;;;;;;;;;;5086523;28;20431;-76
2022/08/08 05:33:20;;;;;;;11.35;6.88;;;;;;;;;;5070553;28;20704;-75
2022/08/08 05:35:46;;;;;;;11.82;7.25;;;14.70;99.90;;;;;;5072202;28;20429;-75
2022/08/08 05:38:17;;;;;;;12.87;7.43;;;;;;;;;;5046976;28;20826;-75
2022/08/08 05:40:48;;;;;;;15.07;7.18;;;14.50;99.90;;;;;;5067699;28;20482;-76
2022/08/08 05:43:24;;;;;;;11.88;7.68;;;;;;;;;;5071960;28;20423;-76
2022/08/08 05:45:50;;;;;;;16.73;7.90;;;;;;;;;;5086721;28;20502;-75
2022/08/08 05:48:17;;;;;;;15.18;7.78;;;;;;;;;;5070286;28;20423;-74
2022/08/08 05:50:44;;;;;;;13.32;8.68;;;;;;;;;;5064813;28;20435;-75
2022/08/08 05:53:10;;;;;;;11.98;8.30;;;;;;;;;;5069186;28;20427;-74
2022/08/08 05:55:43;;;;;;;14.73;9.07;;;14.60;99.90;;;;;;5068380;28;20436;-74
2022/08/08 05:58:12;;;;;;;13.73;9.10;;;14.70;99.90;;;;;;5069563;28;20521;-73
2022/08/08 06:00:38;;;;;;;13.05;8.43;;;;;;;;;;5065315;28;20533;-74
2022/08/08 06:03:10;;;;;;;13.45;9.10;;;;;;;;;;5066988;28;21001;-74
2022/08/08 06:05:40;;;;;;;13.32;8.80;;;;;;;;;;5073050;28;20424;-74
2022/08/08 06:08:08;;;;;;;15.38;9.35;;;14.90;99.90;;;;;;5041764;28;20409;-73
2022/08/08 06:10:34;;;;;;;13.35;8.45;;;15.10;99.90;;;;;;5101930;28;20423;-74
2022/08/08 06:13:01;;;;;;;17.08;9.05;;;;;;;;;;5064011;28;20418;-73
2022/08/08 06:15:27;;;;;;;13.10;8.88;;;;;;;;;;5069126;28;20424;-74
2022/08/08 06:17:55;;;;;;;17.63;9.68;;;;;;;;;;5065455;28;20477;-74
2022/08/08 06:20:21;;;;;;;14.13;8.93;;;15.20;99.90;;;;;;5070530;28;20911;-74
2022/08/08 06:22:47;;;;;;;15.50;9.60;;;;;;;;;;5068614;28;20496;-74
2022/08/08 06:25:13;;;;;;;16.83;9.52;;;15.20;99.90;;;;;;5069458;28;20427;-74
2022/08/08 06:27:52;;;;;;;15.10;9.27;;;15.20;99.90;;;;;;5068167;28;20911;-74
2022/08/08 06:30:21;;;;;;;15.05;9.60;;;15.50;99.90;;;;;;5069975;28;20506;-72
2022/08/08 06:32:50;;;;;;;15.05;9.32;;;15.60;99.90;;;;;;5068609;28;20426;-73
2022/08/08 06:35:17;;;;;;;16.60;9.15;;;;;;;;;;5067972;28;20420;-73
2022/08/08 06:38:03;;;;;;;13.98;9.13;;;;;;;;;;5083238;28;20419;-73
2022/08/08 06:40:31;;;;;;;15.23;9.50;;;15.80;99.90;;;;;;5067129;28;20715;-72
2022/08/08 06:43:00;;;;;;;11.15;8.65;;;;;;;;;;5054166;28;20479;-73
2022/08/08 06:45:27;;;;;;;17.20;9.18;;;;;;;;;;5068444;28;20415;-72
2022/08/08 06:47:52;;;;;;;13.40;8.70;;;15.50;99.90;;;;;;5066755;28;20459;-73
2022/08/08 06:50:18;;;;;;;14.93;8.75;;;15.60;99.90;;;;;;5046059;28;20947;-72
2022/08/08 06:52:44;;;;;;;13.45;9.10;;;15.60;99.90;;;;;;5042606;28;20925;-73
2022/08/08 06:55:10;;;;;;;14.48;8.57;;;16.10;99.90;;;;;;5069139;28;20429;-73
2022/08/08 06:57:36;;;;;;;13.00;7.63;;;;;;;;;;5086782;28;20828;-73
2022/08/08 07:00:07;;;;;;;13.68;7.82;;;16.30;99.90;;;;;;5071455;28;20494;-73
2022/08/08 07:02:35;;;;;;;11.40;7.07;;;16.40;99.90;;;;;;5080256;28;20423;-73
2022/08/08 07:05:07;;;;;;;12.30;6.78;;;17.00;99.90;;;;;;5079702;28;20436;-73
2022/08/08 07:07:54;;;;;;;8.18;5.50;;;17.00;99.90;;;;;;5087389;28;20424;-72
2022/08/08 07:10:22;;;;;;;9.43;4.30;;;17.20;99.90;;;;;;5062406;28;20438;-73
2022/08/08 07:12:52;;;;;;;7.60;4.17;;;17.50;99.90;;;;;;5095165;28;20420;-74
2022/08/08 07:15:43;;;;;;;10.02;4.47;;;17.60;99.90;;;;;;5051420;28;20457;-73
2022/08/08 07:18:10;;;;;;;8.05;4.40;;;18.10;99.90;;;;;;5069031;28;20430;-73
2022/08/08 07:20:38;;;;;;;7.65;4.25;;;18.10;99.90;;;;;;5070261;28;20771;-73
2022/08/08 07:23:21;;;;;;;8.10;4.55;;;18.10;99.90;;;;;;5073857;28;20408;-73
2022/08/08 07:25:50;;;;;;;8.95;4.45;;;18.40;99.90;;;;;;5072921;28;20410;-74
2022/08/08 07:28:18;;;;;;;8.23;4.82;;;18.40;99.90;;;;;;5069930;28;20470;-73
2022/08/08 07:30:45;;;;;;;11.95;5.35;;;18.50;99.90;;;;;;5048762;28;21099;-73
2022/08/08 07:33:13;;;;;;;7.78;4.30;;;18.80;99.90;;;;;;5044607;28;20432;-73
2022/08/08 07:35:39;;;;;;;7.57;3.77;;;18.90;99.90;;;;;;5068496;28;20511;-73
2022/08/08 07:38:06;;;;;;;8.00;3.78;;;19.10;99.90;;;;;;5071059;28;20422;-73
2022/08/08 07:40:32;;;;;;;7.05;3.42;;;;;;;;;;5053137;28;20415;-73
2022/08/08 07:43:00;;;;;;;7.40;3.65;;;;;;;;;;5057564;28;20783;-72
2022/08/08 07:45:26;;;;;;;10.57;4.10;;;19.50;99.90;;;;;;5062154;28;20423;-73
2022/08/08 07:47:53;;;;;;;7.17;3.20;;;19.50;99.90;;;;;;5044471;28;20481;-73
2022/08/08 07:50:20;;;;;;;4.90;2.95;;;19.50;99.90;;;;;;5064510;28;20513;-74
2022/08/08 07:52:49;;;;;;;6.55;3.22;;;20.00;99.90;;;;;;5065321;28;20424;-73
2022/08/08 07:55:23;;;;;;;5.13;2.25;;;19.70;99.90;;;;;;5079872;28;20431;-74
2022/08/08 07:58:20;;;;;;;4.13;2.30;;;19.90;99.90;;;;;;5066745;28;20419;-73
2022/08/08 08:00:51;;;;;;;5.43;2.55;;;19.80;99.90;;;;;;5061769;28;20420;-73
2022/08/08 08:03:29;;;;;;;6.22;2.70;;;20.30;99.90;;;;;;5044531;28;20483;-73
2022/08/08 08:05:58;;;;;;;6.20;2.50;;;20.40;99.90;;;;;;5058330;28;20435;-74
2022/08/08 08:08:35;;;;;;;4.63;2.35;;;20.60;99.90;;;;;;5064251;28;20453;-73
2022/08/08 08:11:02;;;;;;;4.35;2.20;;;20.60;99.90;;;;;;5065036;28;20431;-73
2022/08/08 08:13:40;;;;;;;5.97;2.40;;;21.40;99.90;;;;;;5069761;28;20909;-73
2022/08/08 08:16:08;;;;;;;4.05;1.92;;;21.10;99.90;;;;;;5067017;28;20433;-73
2022/08/08 08:18:46;;;;;;;5.22;1.90;;;21.30;99.90;;;;;;5071192;28;20493;-73
2022/08/08 08:21:15;;;;;;;4.63;1.87;;;21.30;99.90;;;;;;5073986;28;20431;-73
2022/08/08 08:23:40;;;;;;;4.55;2.08;;;21.30;99.90;;;;;;5069177;28;20428;-74
2022/08/08 08:26:06;;;;;;;4.63;1.97;;;21.90;99.90;;;;;;5070824;28;20457;-73
2022/08/08 08:28:32;;;;;;;5.37;2.17;;;21.80;99.90;;;;;;5073015;28;20488;-73
2022/08/08 08:31:03;;;;;;;5.20;1.90;;;22.50;99.90;;;;;;5079654;28;20420;-74
2022/08/08 08:33:30;;;;;;;5.63;2.28;;;21.90;99.90;;;;;;5101069;27;20941;-73
2022/08/08 08:35:56;;;;;;;5.25;2.13;;;22.00;99.90;;;;;;5066969;28;20776;-74
2022/08/08 08:38:22;;;;;;;4.55;2.08;;;22.60;99.90;;;;;;5054235;28;20977;-74
2022/08/08 08:40:48;;;;;;;5.22;1.80;;;22.60;99.90;;;;;;5085576;28;20420;-74
2022/08/08 08:43:16;;;;;;;3.70;1.65;;;22.30;99.90;;;;;;5067902;28;20454;-74
2022/08/08 08:45:42;;;;;;;4.32;1.88;;;22.10;99.90;;;;;;5069597;28;20412;-75
2022/08/08 08:48:09;;;;;;;4.10;1.52;;;22.60;99.90;;;;;;5046425;28;20870;-75
2022/08/08 08:50:36;;;;;;;4.05;1.67;;;22.10;99.90;;;;;;5066181;28;20474;-74
2022/08/08 08:53:10;;;;;;;4.40;1.67;;;19.80;99.90;;;;;;5098598;28;20411;-75
2022/08/08 08:55:38;;;;;;;3.80;1.55;;;22.60;99.90;;;;;;5053306;28;20419;-74
2022/08/08 08:58:35;;;;;;;4.00;1.50;;;22.20;99.90;;;;;;5070045;28;20907;-74
2022/08/08 09:01:12;;;;;;;4.28;1.80;;;22.50;99.90;;;;;;5053691;28;20510;-75
2022/08/08 09:03:43;;;;;;;3.92;1.45;;;22.30;99.90;;;;;;5068906;28;20419;-75
2022/08/08 09:06:09;;;;;;;4.90;1.60;;;22.70;99.90;;;;;;5050620;28;20946;-74
2022/08/08 09:08:38;;;;;;;4.85;2.10;;;22.10;99.90;;;;;;5083807;28;20419;-75
2022/08/08 09:11:13;;;;;;;4.60;1.42;;;22.30;99.90;;;;;;5064269;28;20506;-75
2022/08/08 09:13:46;;;;;;;3.90;1.80;;;21.60;99.90;;;;;;5097907;28;20427;-74
2022/08/08 09:16:12;;;;;;;2.95;1.63;;;22.40;99.90;;;;;;5069581;28;20455;-74
2022/08/08 09:18:42;;;;;;;5.00;2.03;;;22.30;99.90;;;;;;5032263;28;20413;-74
2022/08/08 09:21:08;;;;;;;3.50;1.50;;;22.20;99.90;;;;;;5037893;28;20438;-74
2022/08/08 09:23:35;;;;;;;4.50;1.60;;;22.20;99.90;;;;;;5052489;28;20976;-74
2022/08/08 09:26:18;;;;;;;5.27;1.70;;;22.20;99.90;;;;;;5064477;28;20423;-75
2022/08/08 09:28:44;;;;;;;5.45;1.83;;;22.40;99.90;;;;;;5066183;28;20510;-74
2022/08/08 09:31:14;;;;;;;7.35;1.58;;;22.30;99.90;;;;;;5050050;28;20518;-74
2022/08/08 09:33:44;;;;;;;4.70;1.80;;;22.20;99.90;;;;;;5065397;28;20434;-75
2022/08/08 09:36:21;;;;;;;4.20;1.50;;;22.20;99.90;;;;;;5065398;28;20508;-75
2022/08/08 09:38:58;;;;;;;5.18;1.65;;;22.10;99.90;;;;;;5059598;28;20435;-74
2022/08/08 09:41:37;;;;;;;6.25;1.80;;;22.20;99.90;;;;;;5069316;28;20423;-76
2022/08/08 09:44:19;;;;;;;3.05;1.70;;;22.40;99.90;;;;;;5104327;28;20407;-74
2022/08/08 09:46:47;;;;;;;3.85;1.58;;;22.40;99.90;;;;;;5103083;28;20428;-74
2022/08/08 09:49:17;;;;;;;4.32;1.42;;;22.40;99.90;;;;;;5070163;28;20918;-75
2022/08/08 09:51:52;;;;;;;9.83;2.00;;;22.20;99.90;;;;;;5051711;28;20829;-74
2022/08/08 09:54:21;;;;;;;3.55;1.35;;;21.80;99.90;;;;;;5067751;28;20449;-74
2022/08/08 09:56:54;;;;;;;3.78;1.30;;;22.10;99.90;;;;;;5097534;28;20508;-74
2022/08/08 09:59:29;;;;;;;2.63;1.27;;;22.00;99.90;;;;;;5096281;28;20417;-74
2022/08/08 10:01:58;;;;;;;3.13;1.50;;;22.00;99.90;;;;;;5071881;28;20445;-74
2022/08/08 10:04:26;;;;;;;3.47;1.30;;;22.10;99.90;;;;;;5076370;28;20419;-74
2022/08/08 10:06:52;;;;;;;2.87;1.57;;;22.10;99.90;;;;;;5063659;28;20434;-74
2022/08/08 10:09:34;;;;;;;4.45;2.50;;;22.20;99.90;;;;;;5051950;28;20425;-75
2022/08/08 10:12:03;;;;;;;4.18;2.85;;;22.40;99.90;;;;;;5054990;28;20418;-77
2022/08/08 10:14:33;;;;;;;3.50;1.60;;;22.30;99.90;;;;;;5100776;28;20413;-76
2022/08/08 10:17:01;;;;;;;3.25;1.50;;;22.00;99.90;;;;;;5069946;28;20428;-76
2022/08/08 10:19:39;;;;;;;2.95;1.20;;;22.00;99.90;;;;;;5054190;28;20758;-77
2022/08/08 10:22:07;;;;;;;3.43;1.40;;;21.90;99.90;;;;;;5067313;28;20424;-76
2022/08/08 10:24:34;;;;;;;3.08;1.60;;;22.40;99.90;;;;;;5053926;28;20498;-77
2022/08/08 10:27:03;;;;;;;2.53;1.40;;;22.10;99.90;;;;;;5069574;28;20417;-76
2022/08/08 10:29:38;;;;;;;3.40;1.30;;;22.50;99.90;;;;;;5043225;28;20421;-77
2022/08/08 10:34:58;;;;;;;3.35;1.88;;;21.80;99.90;;;;;;5083026;28;20436;-77
2022/08/08 10:37:27;;;;;;;5.22;1.60;;;21.60;99.90;;;;;;5090408;28;20415;-77
2022/08/08 10:39:55;;;;;;;4.00;1.63;;;21.40;99.90;;;;;;5067565;28;20472;-77
2022/08/08 10:42:24;;;;;;;3.70;1.70;;;21.40;99.90;;;;;;5090417;28;20470;-77
2022/08/08 10:44:59;;;;;;;5.22;1.60;;;21.50;99.90;;;;;;5089511;28;20418;-77
2022/08/08 10:47:25;;;;;;;3.92;1.60;;;21.30;99.90;;;;;;5075882;28;20421;-77
2022/08/08 10:49:59;;;;;;;6.43;1.70;;;21.30;99.90;;;;;;5073879;28;20413;-77
2022/08/08 10:52:41;;;;;;;4.10;1.70;;;21.70;99.90;;;;;;5069761;28;20420;-77
2022/08/08 10:55:10;;;;;;;5.10;1.85;;;21.40;99.90;;;;;;5073281;28;20422;-76
2022/08/08 10:57:44;;;;;;;5.78;1.85;;;21.40;99.90;;;;;;5093400;28;20390;-75
2022/08/08 11:00:12;;;;;;;3.70;1.60;;;;;;;;;;5085412;28;20874;-74
2022/08/08 11:02:38;;;;;;;4.70;1.65;;;21.50;99.90;;;;;;5093146;28;20750;-74
2022/08/08 11:05:08;;;;;;;5.37;1.70;;;21.60;99.90;;;;;;5090963;28;20433;-74
2022/08/08 11:07:47;;;;;;;4.25;1.83;;;21.70;99.90;;;;;;5072363;28;20418;-74
2022/08/08 11:10:16;;;;;;;5.18;2.05;;;21.90;99.90;;;;;;5057075;28;21082;-75
2022/08/08 11:12:44;;;;;;;7.50;2.00;;;21.60;99.90;;;;;;5069934;28;20432;-74
2022/08/08 11:15:13;;;;;;;6.45;2.10;;;21.60;99.90;;;;;;5089081;28;20513;-75
2022/08/08 11:17:40;;;;;;;5.77;2.10;;;21.70;99.90;;;;;;5093285;28;20882;-75
2022/08/08 11:20:11;;;;;;;4.00;1.70;;;21.90;99.90;;;;;;5075439;28;20495;-75
2022/08/08 11:22:38;;;;;;;5.83;1.90;;;22.20;99.90;;;;;;5060035;28;20906;-75
2022/08/08 11:25:06;;;;;;;6.10;1.73;;;22.10;99.90;;;;;;5072339;28;20530;-75
2022/08/08 11:27:33;;;;;;;5.28;1.52;;;22.30;99.90;;;;;;5109298;28;20464;-75
2022/08/08 11:30:02;;;;;;;5.17;1.97;;;22.50;99.90;;;;;;5100889;28;20434;-75
2022/08/08 11:32:30;;;;;;;5.43;1.60;;;22.50;99.90;;;;;;5058801;28;20776;-76
2022/08/08 11:35:08;;;;;;;5.20;1.60;;;22.40;99.90;;;;;;5076042;28;20434;-75
2022/08/08 11:37:35;;;;;;;4.30;1.90;;;22.70;99.90;;;;;;5039600;28;20491;-75
2022/08/08 11:40:03;;;;;;;4.43;1.40;;;23.30;99.90;;;;;;5083848;28;20411;-73
2022/08/08 11:42:30;;;;;;;4.20;1.63;;;22.90;99.90;;;;;;5095351;28;20418;-74
2022/08/08 11:44:57;;;;;;;6.03;1.80;;;22.80;99.90;;;;;;5107331;28;20420;-75
2022/08/08 11:47:24;;;;;;;4.18;2.10;;;22.80;99.90;;;;;;5106145;27;20956;-74
2022/08/08 11:49:59;;;;;;;5.07;1.70;;;23.40;99.90;;;;;;5046943;28;20425;-74
2022/08/08 11:52:25;;;;;;;3.53;1.63;;;23.20;99.90;;;;;;5089439;28;20497;-74
2022/08/08 11:54:52;;;;;;;5.07;2.00;;;23.00;99.90;;;;;;5073641;28;20491;-74
2022/08/08 11:57:22;;;;;;;3.83;1.83;;;23.60;99.90;;;;;;5075322;28;20425;-74
2022/08/08 11:59:57;;;;;;;5.55;1.70;;;23.20;99.90;;;;;;5066579;28;20902;-73
2022/08/08 12:02:25;;;;;;;2.90;1.70;;;23.20;99.90;;;;;;5109205;28;20527;-73
2022/08/08 12:05:08;;;;;;;3.70;1.40;;;23.00;99.90;;;;;;5109347;28;20533;-74
2022/08/08 12:07:51;;;;;;;3.15;1.60;;;23.40;99.90;;;;;;5087721;28;20425;-74
2022/08/08 12:10:20;;;;;;;4.38;1.58;;;23.40;99.90;;;;;;5083277;28;20490;-74
2022/08/08 12:12:47;;;;;;;3.50;1.55;;;23.50;99.90;;;;;;5070549;28;20402;-74
2022/08/08 12:15:25;;;;;;;4.05;1.77;;;23.60;99.90;;;;;;5058189;28;20475;-74
2022/08/08 12:17:50;;;;;;;4.43;1.85;;;23.50;99.90;;;;;;5073672;28;20426;-74
2022/08/08 12:20:16;;;;;;;3.33;1.73;;;23.70;99.90;;;;;;5087868;28;20414;-74
2022/08/08 12:22:48;;;;;;;3.10;1.37;;;23.50;99.90;;;;;;5070769;28;20413;-74
2022/08/08 12:25:26;;;;;;;3.50;1.55;;;23.00;99.90;;;;;;5070439;28;20498;-74
2022/08/08 12:28:07;;;;;;;2.78;1.40;;;23.10;99.90;;;;;;5099378;28;20417;-74
2022/08/08 12:30:34;;;;;;;2.97;1.67;;;23.30;99.90;;;;;;5103294;28;20417;-74
2022/08/08 12:33:00;;;;;;;3.33;1.38;;;23.40;99.90;;;;;;5063549;28;20483;-74
2022/08/08 12:35:32;;;;;;;4.85;1.60;;;23.80;99.90;;;;;;5040543;28;20442;-74
2022/08/08 12:38:06;;;;;;;3.95;1.60;;;23.30;99.90;;;;;;5089372;28;20425;-75
2022/08/08 12:40:46;;;;;;;3.50;1.70;;;23.20;99.90;;;;;;5072811;28;20417;-75
2022/08/08 12:43:15;;;;;;;2.57;1.57;;;22.90;99.90;;;;;;5051034;28;20416;-75
2022/08/08 12:45:43;;;;;;;3.90;1.70;;;23.10;99.90;;;;;;5057600;28;20413;-74
2022/08/08 12:48:18;;;;;;;3.33;1.60;;;23.00;99.90;;;;;;5033464;28;20423;-74
2022/08/08 12:50:47;;;;;;;4.93;1.95;;;23.00;99.90;;;;;;5069193;28;20500;-75
2022/08/08 12:53:32;;;;;;;4.07;1.95;;;22.90;99.90;;;;;;5055371;28;20950;-75
2022/08/08 12:56:09;;;;;;;3.42;1.80;;;22.80;99.90;;;;;;5065053;28;20425;-75
2022/08/08 12:58:50;;;;;;;4.85;2.20;;;22.60;99.90;;;;;;5074553;28;20792;-74
2022/08/08 13:01:16;;;;;;;4.67;2.10;;;22.70;99.90;;;;;;5072537;28;21249;-74
2022/08/08 13:03:49;;;;;;;4.33;1.97;;;22.70;99.90;;;;;;5074092;28;20410;-74
2022/08/08 13:06:17;;;;;;;4.28;1.70;;;22.80;99.90;;;;;;5061937;28;20914;-74
2022/08/08 13:08:51;;;;;;;5.60;2.07;;;22.80;99.90;;;;;;5095161;28;20440;-74
2022/08/08 13:11:37;;;;;;;3.72;1.60;;;23.30;99.90;;;;;;5065734;28;20421;-74
2022/08/08 13:14:15;;;;;;;3.57;1.90;;;23.30;99.90;;;;;;5076164;28;20414;-75
2022/08/08 13:16:42;;;;;;;4.85;1.90;;;22.90;99.90;;;;;;5069298;28;20426;-74
2022/08/08 13:19:09;;;;;;;3.40;1.60;;;23.00;99.90;;;;;;5064218;28;20416;-74
2022/08/08 13:21:42;;;;;;;4.55;1.73;;;22.90;99.90;;;;;;5057864;28;20495;-74
2022/08/08 13:24:09;;;;;;;3.85;2.00;;;23.40;99.90;;;;;;5058375;28;20488;-73
2022/08/08 13:26:35;;;;;;;3.58;1.50;;;23.60;99.90;;;;;;5055456;28;20449;-74
2022/08/08 13:29:12;;;;;;;4.05;1.70;;;23.80;99.90;;;;;;5088464;28;20541;-75
2022/08/08 13:31:49;;;;;;;4.35;1.67;;;23.90;99.90;;;;;;5063184;28;20489;-75
2022/08/08 13:34:23;;;;;;;2.58;1.40;;;24.00;99.90;;;;;;5054885;28;20456;-74
2022/08/08 13:36:50;;;;;;;3.15;1.40;;;24.10;99.90;;;;;;5082598;28;20478;-75
2022/08/08 13:39:18;;;;;;;3.17;1.48;;;24.70;99.90;;;;;;5063460;28;20502;-74
2022/08/08 13:41:45;;;;;;;3.47;1.48;;;24.60;99.90;;;;;;5067514;28;20461;-74
2022/08/08 13:44:12;;;;;;;4.13;1.33;;;24.60;99.90;;;;;;5072850;28;20418;-75
2022/08/08 13:46:39;;;;;;;2.67;1.40;;;24.20;99.90;;;;;;5086557;28;20449;-74
2022/08/08 13:49:15;;;;;;;3.10;1.50;;;24.10;99.90;;;;;;5098863;28;20414;-74